Time;durP1;ratioP1;P1;durP2;ratioP2;P2;SDS_P1;SDS_P2;PMS_P1;PMS_P2;Temp;Humidity;BMP_temperature;BMP_pressure;BME280_temperature;BME280_humidity;BME280_pressure;Samples;Min_cycle;Max_cycle;Signal;HPM_P1;HPM_P2
2023/06/19 04:01:29;;;;;;;2.50;1.33;;;26.90;59.80;;;;;;5332732;23;20466;-80
2023/06/19 04:07:36;;;;;;;1.98;1.73;;;26.90;44.20;;;;;;5032301;28;20095;-81
2023/06/19 04:10:02;;;;;;;1.48;1.38;;;26.80;44.40;;;;;;5031941;28;20124;-81
2023/06/19 04:12:28;;;;;;;2.10;1.80;;;26.80;44.30;;;;;;5032087;28;20101;-81
2023/06/19 04:14:54;;;;;;;2.17;1.50;;;26.80;44.50;;;;;;5032061;28;20030;-81
2023/06/19 04:17:20;;;;;;;1.55;1.45;;;26.80;44.70;;;;;;5031869;28;20021;-81
2023/06/19 04:19:46;;;;;;;2.22;1.63;;;26.80;44.50;;;;;;5031928;28;20029;-81
2023/06/19 04:22:12;;;;;;;1.85;1.60;;;26.80;44.40;;;;;;5031766;28;20113;-81
2023/06/19 04:24:37;;;;;;;1.55;1.42;;;26.80;44.40;;;;;;5031755;28;20029;-81
2023/06/19 04:27:04;;;;;;;1.60;1.50;;;26.80;44.40;;;;;;5031800;28;20021;-81
2023/06/19 04:29:31;;;;;;;2.03;1.48;;;26.80;44.30;;;;;;5031944;28;20029;-81
2023/06/19 04:32:03;;;;;;;1.70;1.42;;;26.80;44.30;;;;;;5013749;28;20472;-81
2023/06/19 04:34:28;;;;;;;1.50;1.40;;;26.80;44.30;;;;;;5034119;28;20036;-80
2023/06/19 04:36:58;;;;;;;1.60;1.50;;;26.80;44.40;;;;;;5038104;28;20093;-80
2023/06/19 04:39:24;;;;;;;2.05;1.67;;;26.80;44.40;;;;;;5038406;28;20026;-81
2023/06/19 04:41:50;;;;;;;2.20;1.92;;;26.80;44.30;;;;;;5038155;28;20078;-81
2023/06/19 04:44:16;;;;;;;2.20;1.80;;;26.80;44.30;;;;;;5038253;28;20049;-81
2023/06/19 04:46:43;;;;;;;2.22;1.95;;;26.70;44.30;;;;;;5037820;28;20187;-81
2023/06/19 04:49:10;;;;;;;2.17;1.85;;;26.70;44.90;;;;;;5037738;28;20081;-81
2023/06/19 04:51:36;;;;;;;1.90;1.73;;;26.70;44.40;;;;;;5038148;28;20014;-81
2023/06/19 04:54:02;;;;;;;1.88;1.50;;;26.70;44.60;;;;;;5038267;28;20040;-80
2023/06/19 04:56:28;;;;;;;1.85;1.55;;;26.70;44.50;;;;;;5038203;28;20083;-81
2023/06/19 04:58:59;;;;;;;3.40;1.70;;;26.70;44.50;;;;;;5037956;28;20056;-81
2023/06/19 05:01:30;;;;;;;3.53;1.50;;;26.70;44.50;;;;;;5037737;28;20510;-82
2023/06/19 05:03:56;;;;;;;1.60;1.50;;;26.70;45.10;;;;;;5037800;28;20044;-80
2023/06/19 05:06:23;;;;;;;1.73;1.58;;;26.60;44.50;;;;;;5037799;28;20039;-80
2023/06/19 05:08:50;;;;;;;1.50;1.40;;;26.70;44.50;;;;;;5037561;28;20025;-80
2023/06/19 05:11:16;;;;;;;1.70;1.60;;;26.70;44.40;;;;;;5038088;28;20379;-80
2023/06/19 05:13:42;;;;;;;2.15;1.50;;;26.60;44.40;;;;;;5038081;28;20075;-80
2023/06/19 05:16:08;;;;;;;1.60;1.40;;;26.60;44.50;;;;;;5037883;28;20054;-80
2023/06/19 05:18:34;;;;;;;2.45;1.90;;;26.60;44.40;;;;;;5044308;28;20029;-80
2023/06/19 05:21:00;;;;;;;1.65;1.55;;;26.60;44.30;;;;;;5038934;28;20067;-77
2023/06/19 05:23:26;;;;;;;1.27;1.17;;;26.60;44.40;;;;;;5037820;28;20378;-78
2023/06/19 05:25:52;;;;;;;1.95;1.70;;;26.60;44.50;;;;;;5037355;28;20022;-78
2023/06/19 05:28:18;;;;;;;2.17;1.73;;;;;;;;;;5037626;28;20025;-78
2023/06/19 05:30:44;;;;;;;1.58;1.48;;;26.60;43.80;;;;;;5037744;28;20100;-79
2023/06/19 05:33:15;;;;;;;2.25;1.58;;;26.60;44.40;;;;;;5037840;28;20053;-80
2023/06/19 05:35:43;;;;;;;3.17;2.45;;;26.60;44.20;;;;;;5037873;28;20026;-80
2023/06/19 05:38:09;;;;;;;2.58;2.38;;;26.60;44.30;;;;;;5037480;28;20083;-80
2023/06/19 05:40:34;;;;;;;2.00;1.90;;;26.60;44.50;;;;;;5037799;28;20503;-80
2023/06/19 05:43:00;;;;;;;2.00;1.80;;;26.60;44.50;;;;;;5037593;28;20093;-80
2023/06/19 05:45:26;;;;;;;2.30;2.10;;;26.60;44.40;;;;;;5036257;28;20026;-80
2023/06/19 05:47:52;;;;;;;4.45;2.25;;;26.50;44.50;;;;;;5033782;28;20116;-80
2023/06/19 05:50:18;;;;;;;2.13;2.03;;;26.50;44.40;;;;;;5034449;28;20099;-80
2023/06/19 05:52:44;;;;;;;2.28;2.05;;;26.50;44.40;;;;;;5034320;28;20464;-80
2023/06/19 05:55:10;;;;;;;2.40;2.20;;;26.60;44.40;;;;;;5034160;28;20095;-79
2023/06/19 05:57:36;;;;;;;2.40;2.20;;;26.50;44.40;;;;;;5034125;28;20022;-79
2023/06/19 06:00:03;;;;;;;3.55;1.88;;;26.50;44.50;;;;;;5034023;28;20033;-79
2023/06/19 06:02:29;;;;;;;3.20;2.90;;;26.50;44.60;;;;;;5033780;28;20398;-80
2023/06/19 06:04:56;;;;;;;3.08;2.42;;;26.50;44.60;;;;;;5034321;28;20097;-80
2023/06/19 06:07:22;;;;;;;3.92;2.65;;;26.50;44.50;;;;;;5034277;28;20104;-81
2023/06/19 06:09:48;;;;;;;3.28;2.13;;;26.40;44.50;;;;;;5033953;28;20114;-76
2023/06/19 06:12:13;;;;;;;2.92;2.65;;;26.40;44.60;;;;;;5033863;28;20025;-75
2023/06/19 06:14:40;;;;;;;3.47;2.55;;;26.40;44.50;;;;;;5033780;28;20056;-75
2023/06/19 06:17:06;;;;;;;2.72;2.30;;;26.40;44.50;;;;;;5033586;28;20021;-75
2023/06/19 06:19:32;;;;;;;3.97;2.53;;;26.50;44.40;;;;;;5033488;28;20440;-75
2023/06/19 06:21:57;;;;;;;2.50;2.30;;;26.40;44.40;;;;;;5033437;28;20064;-75
2023/06/19 06:24:23;;;;;;;2.63;2.33;;;26.40;44.40;;;;;;5032356;28;20075;-75
2023/06/19 06:26:49;;;;;;;7.60;3.13;;;26.40;44.40;;;;;;5033681;28;20159;-76
2023/06/19 06:29:15;;;;;;;3.65;2.75;;;26.40;45.20;;;;;;5033612;28;20033;-79
2023/06/19 06:31:41;;;;;;;2.95;2.75;;;26.40;44.50;;;;;;5033408;28;20025;-75
2023/06/19 06:34:07;;;;;;;3.05;2.70;;;26.40;44.30;;;;;;5033335;28;20484;-76
2023/06/19 06:36:33;;;;;;;3.00;2.70;;;26.40;44.30;;;;;;5033295;28;20049;-76
2023/06/19 06:39:00;;;;;;;4.15;3.30;;;26.40;44.40;;;;;;5033146;28;20031;-76
2023/06/19 06:41:26;;;;;;;4.05;2.90;;;26.40;44.50;;;;;;5033172;28;20021;-74
2023/06/19 06:43:53;;;;;;;4.68;3.25;;;26.30;44.50;;;;;;5033488;28;20045;-75
2023/06/19 06:46:19;;;;;;;4.50;3.13;;;26.40;60.30;;;;;;5033225;28;20541;-75
2023/06/19 06:48:45;;;;;;;4.38;3.40;;;26.30;44.70;;;;;;5033058;28;20034;-75
2023/06/19 06:51:11;;;;;;;3.20;2.78;;;26.30;44.50;;;;;;5032022;28;20018;-75
2023/06/19 06:53:37;;;;;;;6.05;4.05;;;26.40;44.60;;;;;;5033293;28;20036;-75
2023/06/19 06:56:04;;;;;;;3.85;3.42;;;26.30;44.70;;;;;;5033179;28;20025;-75
2023/06/19 06:58:30;;;;;;;3.47;3.17;;;26.30;44.60;;;;;;5032568;28;20032;-75
2023/06/19 07:00:56;;;;;;;5.28;3.25;;;26.30;44.60;;;;;;5033163;28;20096;-76
2023/06/19 07:03:22;;;;;;;4.50;3.80;;;26.30;44.50;;;;;;5032685;28;20067;-74
2023/06/19 07:05:48;;;;;;;4.47;4.00;;;26.30;44.70;;;;;;5033053;28;20025;-76
2023/06/19 07:08:14;;;;;;;4.10;3.70;;;26.30;44.50;;;;;;5032305;28;20048;-77
2023/06/19 07:10:40;;;;;;;4.93;3.38;;;26.30;44.60;;;;;;5032910;28;20096;-77
2023/06/19 07:13:06;;;;;;;4.55;3.78;;;26.30;44.60;;;;;;5032634;28;20486;-76
2023/06/19 07:15:31;;;;;;;4.65;4.10;;;26.20;44.50;;;;;;5032552;28;20079;-76
2023/06/19 07:17:57;;;;;;;5.13;3.90;;;26.20;44.70;;;;;;5032641;28;20030;-77
2023/06/19 07:20:23;;;;;;;5.93;4.57;;;26.30;44.70;;;;;;5032508;28;20520;-77
2023/06/19 07:22:51;;;;;;;5.55;4.35;;;26.20;44.70;;;;;;5032719;28;20021;-77
2023/06/19 07:25:17;;;;;;;4.40;4.00;;;26.20;44.60;;;;;;5031971;28;20095;-77
2023/06/19 07:27:44;;;;;;;4.75;4.28;;;26.30;44.60;;;;;;5032578;28;20040;-77
2023/06/19 07:30:13;;;;;;;5.07;4.22;;;26.30;44.60;;;;;;5032429;28;20037;-77
2023/06/19 07:32:39;;;;;;;6.60;4.50;;;26.20;44.40;;;;;;5032375;28;20056;-77
2023/06/19 07:35:07;;;;;;;5.60;4.63;;;26.20;44.50;;;;;;5031889;28;20606;-77
2023/06/19 07:37:33;;;;;;;4.38;3.97;;;26.20;44.60;;;;;;5032423;28;20100;-77
2023/06/19 07:39:59;;;;;;;5.95;4.20;;;26.20;45.20;;;;;;5032062;28;20021;-77
2023/06/19 07:42:26;;;;;;;4.85;4.35;;;26.20;44.70;;;;;;5032010;28;20025;-77
2023/06/19 07:44:52;;;;;;;3.90;3.58;;;26.30;44.60;;;;;;5032260;28;20173;-77
2023/06/19 07:47:20;;;;;;;5.68;5.05;;;;;;;;;;5031975;28;20135;-77
2023/06/19 07:49:46;;;;;;;5.28;4.80;;;26.20;44.00;;;;;;5032009;28;20049;-77
2023/06/19 07:52:13;;;;;;;5.15;4.60;;;26.20;44.70;;;;;;5032119;28;20108;-78
2023/06/19 07:54:53;;;;;;;5.53;4.38;;;26.20;44.50;;;;;;5031988;28;20403;-78
2023/06/19 07:57:19;;;;;;;4.40;4.10;;;26.20;44.60;;;;;;5031999;28;20022;-77
2023/06/19 07:59:47;;;;;;;5.35;4.88;;;26.30;44.70;;;;;;5031975;28;20025;-79
2023/06/19 08:02:13;;;;;;;6.18;5.32;;;26.30;45.10;;;;;;5031239;28;20045;-76
2023/06/19 08:04:39;;;;;;;7.68;5.30;;;26.30;45.00;;;;;;5031455;28;20116;-77
2023/06/19 08:07:05;;;;;;;6.25;5.07;;;26.30;44.90;;;;;;5031818;28;20045;-76
2023/06/19 08:09:31;;;;;;;6.53;5.28;;;26.30;45.00;;;;;;5030795;28;20037;-77
2023/06/19 08:11:57;;;;;;;7.38;6.15;;;26.30;45.20;;;;;;5031635;28;20022;-76
2023/06/19 08:14:23;;;;;;;6.15;5.55;;;26.30;45.30;;;;;;5031750;28;20156;-76
2023/06/19 08:16:49;;;;;;;10.45;6.90;;;26.30;45.30;;;;;;5035212;28;20388;-75
2023/06/19 08:19:15;;;;;;;8.15;6.15;;;26.40;45.50;;;;;;5032842;28;20021;-77
2023/06/19 08:21:42;;;;;;;6.47;5.88;;;;;;;;;;5031138;28;20483;-77
2023/06/19 08:24:08;;;;;;;9.60;5.28;;;26.30;44.40;;;;;;5031382;28;20108;-75
2023/06/19 08:26:34;;;;;;;5.60;5.10;;;26.30;45.00;;;;;;5031239;28;20454;-76
2023/06/19 08:29:00;;;;;;;6.70;5.32;;;26.30;45.10;;;;;;5031191;28;20511;-76
2023/06/19 08:31:28;;;;;;;6.60;5.38;;;26.40;45.40;;;;;;5031081;28;20033;-76
2023/06/19 08:33:55;;;;;;;5.63;4.90;;;26.40;45.30;;;;;;5031102;28;20049;-76
2023/06/19 08:36:21;;;;;;;7.80;5.45;;;26.30;45.20;;;;;;5031609;28;20042;-76
2023/06/19 08:38:49;;;;;;;5.70;5.07;;;26.40;45.70;;;;;;5031333;28;20472;-76
2023/06/19 08:41:16;;;;;;;6.55;5.53;;;26.40;45.60;;;;;;5031070;28;20025;-77
2023/06/19 08:43:42;;;;;;;5.95;5.35;;;26.40;45.50;;;;;;5031265;28;20113;-76
2023/06/19 08:46:14;;;;;;;7.47;5.70;;;26.40;45.60;;;;;;5031279;28;20041;-76
2023/06/19 08:48:41;;;;;;;7.43;6.03;;;26.40;45.70;;;;;;5031226;28;20446;-76
2023/06/19 08:51:07;;;;;;;8.15;7.25;;;26.50;45.90;;;;;;5031185;28;20029;-75
2023/06/19 08:53:52;;;;;;;8.57;6.72;;;26.50;45.80;;;;;;5031189;28;20029;-76
2023/06/19 08:56:17;;;;;;;7.35;6.65;;;26.50;45.90;;;;;;5031036;28;20036;-76
2023/06/19 08:58:44;;;;;;;7.13;6.15;;;26.50;46.00;;;;;;5031044;28;20116;-78
2023/06/19 09:01:11;;;;;;;7.95;6.60;;;26.50;61.20;;;;;;5030992;28;20025;-77
2023/06/19 09:03:37;;;;;;;10.18;6.47;;;26.50;45.90;;;;;;5030807;28;20046;-79
2023/06/19 09:06:05;;;;;;;11.90;6.63;;;26.50;46.10;;;;;;5031273;28;20127;-79
2023/06/19 09:08:32;;;;;;;7.47;5.75;;;26.50;46.00;;;;;;5031076;28;20017;-77
2023/06/19 09:11:00;;;;;;;8.00;5.85;;;26.50;45.70;;;;;;5030861;28;20472;-77
2023/06/19 09:13:30;;;;;;;8.65;5.80;;;26.60;46.70;;;;;;5031268;28;20462;-77
2023/06/19 09:16:12;;;;;;;10.25;5.70;;;26.60;45.90;;;;;;5029415;28;20427;-77
2023/06/19 09:18:44;;;;;;;7.20;5.80;;;26.60;45.70;;;;;;5031122;28;20037;-77
2023/06/19 09:21:24;;;;;;;6.40;5.65;;;26.60;45.80;;;;;;5032879;28;20032;-78
2023/06/19 09:23:54;;;;;;;7.47;6.38;;;26.60;45.60;;;;;;5034807;28;20097;-78
2023/06/19 09:26:20;;;;;;;6.00;5.00;;;26.60;45.90;;;;;;5034516;28;20022;-76
2023/06/19 09:28:46;;;;;;;7.78;5.15;;;26.60;45.70;;;;;;5034548;28;20455;-77
2023/06/19 09:31:12;;;;;;;7.10;5.45;;;26.60;46.40;;;;;;5034723;28;20111;-78
2023/06/19 09:33:40;;;;;;;6.80;4.80;;;26.60;45.80;;;;;;5034713;28;20021;-78
2023/06/19 09:36:07;;;;;;;7.50;5.32;;;26.70;45.80;;;;;;5034583;28;20074;-78
2023/06/19 09:38:37;;;;;;;5.85;4.43;;;26.70;45.90;;;;;;5034686;28;20422;-79
2023/06/19 09:41:05;;;;;;;7.40;4.68;;;26.70;45.60;;;;;;5034209;28;20098;-78
2023/06/19 09:43:37;;;;;;;6.25;4.82;;;26.70;45.80;;;;;;5034597;28;20028;-77
2023/06/19 09:46:05;;;;;;;8.82;5.35;;;26.80;45.70;;;;;;5034306;28;20035;-77
2023/06/19 09:48:34;;;;;;;6.75;5.70;;;26.80;45.60;;;;;;5034408;28;20080;-80
2023/06/19 09:51:19;;;;;;;6.00;4.67;;;26.90;45.80;;;;;;5034244;28;20068;-83
2023/06/19 09:53:46;;;;;;;6.07;5.00;;;26.90;45.50;;;;;;5034065;28;20506;-83
2023/06/19 09:56:13;;;;;;;5.28;4.78;;;27.00;45.60;;;;;;5033933;28;20037;-82
2023/06/19 09:58:43;;;;;;;7.38;4.90;;;27.00;45.60;;;;;;5034322;28;20120;-80
2023/06/19 10:01:09;;;;;;;5.45;4.00;;;27.10;61.20;;;;;;5034180;28;20417;-82
2023/06/19 10:03:36;;;;;;;4.55;4.15;;;27.00;45.70;;;;;;5033693;28;20040;-84
2023/06/19 10:06:04;;;;;;;4.60;4.07;;;27.00;45.60;;;;;;5033808;28;20135;-83
2023/06/19 10:08:32;;;;;;;4.53;4.13;;;27.10;45.70;;;;;;5033980;28;20050;-81
2023/06/19 10:10:58;;;;;;;4.95;4.22;;;27.10;45.90;;;;;;5033604;28;20499;-79
2023/06/19 10:13:33;;;;;;;5.93;4.50;;;27.10;45.90;;;;;;5034149;28;20048;-76
2023/06/19 10:15:59;;;;;;;6.15;3.88;;;27.10;46.30;;;;;;5034222;28;20033;-85
2023/06/19 10:18:26;;;;;;;7.45;4.40;;;27.10;45.50;;;;;;5034750;28;20022;-79
2023/06/19 10:20:54;;;;;;;5.00;4.07;;;27.20;45.60;;;;;;5034090;28;20479;-84
2023/06/19 10:23:25;;;;;;;5.93;4.95;;;27.20;45.60;;;;;;5032511;28;20105;-83
2023/06/19 10:25:54;;;;;;;5.18;4.68;;;27.20;45.70;;;;;;5034173;28;20026;-77
2023/06/19 10:28:22;;;;;;;5.15;4.65;;;27.30;45.60;;;;;;5033749;28;20030;-78
2023/06/19 10:30:59;;;;;;;6.97;4.53;;;27.30;45.50;;;;;;5033553;28;20026;-82
2023/06/19 10:33:28;;;;;;;5.30;4.13;;;27.40;45.30;;;;;;5033366;28;20486;-81
2023/06/19 10:35:54;;;;;;;5.43;4.10;;;27.50;45.40;;;;;;5033907;28;20064;-79
2023/06/19 10:38:20;;;;;;;6.60;4.70;;;27.40;45.20;;;;;;5033727;28;20026;-82
2023/06/19 10:40:47;;;;;;;7.57;5.07;;;27.50;45.20;;;;;;5033855;28;20419;-81
2023/06/19 10:43:24;;;;;;;4.75;3.92;;;27.40;45.10;;;;;;5033519;28;20030;-85
2023/06/19 10:45:51;;;;;;;5.53;3.90;;;27.50;45.30;;;;;;5033585;28;20033;-79
2023/06/19 10:48:23;;;;;;;6.78;4.55;;;27.50;45.20;;;;;;5033382;28;20025;-76
2023/06/19 10:50:50;;;;;;;5.93;4.80;;;27.50;45.20;;;;;;5033320;28;20371;-80
2023/06/19 10:53:32;;;;;;;4.53;3.83;;;27.50;45.20;;;;;;5033022;28;20018;-79
2023/06/19 10:56:00;;;;;;;7.78;5.03;;;27.50;45.30;;;;;;5033269;28;20017;-80
2023/06/19 10:58:27;;;;;;;5.70;4.32;;;27.60;45.30;;;;;;5015261;28;20021;-79
2023/06/19 11:00:53;;;;;;;6.50;5.57;;;27.60;45.30;;;;;;5033299;28;20034;-79
2023/06/19 11:03:22;;;;;;;7.38;5.57;;;27.60;45.20;;;;;;5032867;28;20095;-79
2023/06/19 11:05:49;;;;;;;4.57;4.18;;;27.60;45.10;;;;;;5033421;28;20466;-78
2023/06/19 11:08:22;;;;;;;6.63;5.32;;;27.70;45.10;;;;;;5032979;28;20380;-76
2023/06/19 11:10:49;;;;;;;9.50;6.05;;;27.70;45.60;;;;;;5033132;28;20037;-79
2023/06/19 11:13:19;;;;;;;5.13;4.40;;;27.80;44.90;;;;;;5031778;28;20087;-79
2023/06/19 11:15:49;;;;;;;5.95;5.10;;;27.90;44.80;;;;;;5032833;28;20079;-79
2023/06/19 11:18:16;;;;;;;6.03;4.65;;;27.90;44.70;;;;;;5032874;28;20018;-79
2023/06/19 11:20:47;;;;;;;5.68;5.05;;;28.00;44.50;;;;;;5032835;28;20032;-79
2023/06/19 11:23:14;;;;;;;5.90;5.00;;;28.10;44.40;;;;;;5032949;28;20037;-79
2023/06/19 11:25:41;;;;;;;7.32;5.13;;;28.20;44.30;;;;;;5032559;28;20026;-78
2023/06/19 11:28:14;;;;;;;6.40;4.40;;;28.30;44.40;;;;;;5032793;28;20480;-79
2023/06/19 11:30:44;;;;;;;5.07;4.22;;;28.40;44.90;;;;;;5032417;28;20387;-78
2023/06/19 11:33:16;;;;;;;5.20;4.38;;;28.50;44.20;;;;;;5032726;28;20029;-79
2023/06/19 11:35:48;;;;;;;5.32;4.20;;;28.50;44.10;;;;;;5032636;28;20108;-80
2023/06/19 11:38:20;;;;;;;5.07;3.85;;;28.60;44.00;;;;;;5032392;28;20025;-80
2023/06/19 11:40:46;;;;;;;5.50;4.30;;;28.70;44.00;;;;;;5032407;28;20025;-79
2023/06/19 11:43:11;;;;;;;4.43;3.78;;;28.80;44.00;;;;;;5031933;28;20361;-80
2023/06/19 11:45:49;;;;;;;4.40;4.00;;;29.00;43.90;;;;;;5031418;28;20113;-80
2023/06/19 11:48:21;;;;;;;4.50;3.88;;;29.00;43.70;;;;;;5032117;28;20021;-79
2023/06/19 11:50:46;;;;;;;3.95;3.20;;;29.00;44.00;;;;;;5032095;28;20033;-79
2023/06/19 11:53:13;;;;;;;4.43;3.80;;;29.10;43.90;;;;;;5031962;28;20356;-79
2023/06/19 11:55:38;;;;;;;7.43;4.88;;;29.20;44.10;;;;;;5031966;28;20025;-79
2023/06/19 11:58:04;;;;;;;4.15;3.75;;;29.30;44.00;;;;;;5032075;28;20052;-79
2023/06/19 12:00:30;;;;;;;4.70;4.10;;;29.40;44.00;;;;;;5031835;28;20033;-79
2023/06/19 12:02:58;;;;;;;4.25;3.85;;;29.40;43.80;;;;;;5031478;28;20506;-79
2023/06/19 12:05:24;;;;;;;4.28;3.88;;;29.50;43.90;;;;;;5031704;28;20037;-80
2023/06/19 12:07:50;;;;;;;5.10;3.67;;;29.40;44.00;;;;;;5032142;28;20014;-79
2023/06/19 12:10:17;;;;;;;4.30;3.67;;;29.50;43.90;;;;;;5032019;28;20045;-80
2023/06/19 12:12:43;;;;;;;3.88;3.55;;;29.50;43.80;;;;;;5014339;28;20387;-79
2023/06/19 12:15:09;;;;;;;4.70;3.60;;;29.60;43.90;;;;;;5030529;28;20585;-79
2023/06/19 12:17:36;;;;;;;4.35;3.72;;;29.60;44.00;;;;;;5030628;28;20196;-79
2023/06/19 12:20:05;;;;;;;3.88;3.42;;;29.70;43.70;;;;;;5030778;28;20369;-79
2023/06/19 12:22:33;;;;;;;4.00;3.58;;;29.70;43.70;;;;;;5030413;28;20033;-79
2023/06/19 12:24:59;;;;;;;3.97;3.10;;;29.80;43.60;;;;;;5013969;28;20056;-79
2023/06/19 12:27:26;;;;;;;4.90;3.85;;;29.90;43.70;;;;;;5014111;28;20045;-79
2023/06/19 12:29:52;;;;;;;4.47;3.53;;;30.00;43.80;;;;;;5030471;28;20042;-79
2023/06/19 12:32:18;;;;;;;4.72;3.83;;;30.00;43.90;;;;;;5030171;28;20076;-80
2023/06/19 12:34:46;;;;;;;3.45;3.15;;;30.00;43.50;;;;;;5031775;28;20037;-79
2023/06/19 12:37:15;;;;;;;5.47;3.83;;;30.10;43.60;;;;;;5014349;28;20026;-79
2023/06/19 12:39:41;;;;;;;3.38;3.08;;;30.20;43.20;;;;;;5030163;28;20029;-79
2023/06/19 12:42:07;;;;;;;4.65;3.83;;;30.20;43.30;;;;;;5030177;28;20045;-79
2023/06/19 12:44:33;;;;;;;4.07;3.78;;;30.20;43.10;;;;;;5013621;28;20025;-80
2023/06/19 12:47:00;;;;;;;4.47;3.60;;;30.10;43.20;;;;;;5031382;28;20032;-80
2023/06/19 12:49:26;;;;;;;4.28;3.40;;;30.20;44.00;;;;;;5031148;28;20080;-81
2023/06/19 12:51:52;;;;;;;4.15;3.50;;;30.20;43.20;;;;;;5031189;28;20112;-79
2023/06/19 12:54:19;;;;;;;4.30;3.90;;;30.30;43.80;;;;;;5031558;28;20030;-80
2023/06/19 12:56:45;;;;;;;3.83;3.42;;;30.30;43.10;;;;;;5034476;28;20026;-79
2023/06/19 12:59:11;;;;;;;4.60;4.03;;;30.00;42.70;;;;;;5035130;28;20365;-79
2023/06/19 13:01:37;;;;;;;5.68;3.50;;;30.40;42.60;;;;;;5034587;28;20025;-79
2023/06/19 13:04:03;;;;;;;5.03;3.60;;;30.50;42.10;;;;;;5035192;28;20030;-80
2023/06/19 13:06:29;;;;;;;4.68;3.55;;;30.50;41.90;;;;;;5035238;28;20022;-80
2023/06/19 13:08:55;;;;;;;5.95;4.20;;;30.60;42.30;;;;;;5035143;28;20107;-80
2023/06/19 13:11:21;;;;;;;4.20;3.80;;;30.60;41.80;;;;;;5035041;28;20029;-79
2023/06/19 13:13:46;;;;;;;6.22;4.28;;;30.60;41.80;;;;;;5034981;28;20101;-80
2023/06/19 13:16:12;;;;;;;5.95;4.40;;;30.70;41.90;;;;;;5035119;28;20022;-80
2023/06/19 13:18:38;;;;;;;5.60;4.20;;;30.60;42.30;;;;;;5034855;28;20024;-80
2023/06/19 13:21:04;;;;;;;4.72;3.65;;;30.60;42.20;;;;;;5034604;28;20021;-79
2023/06/19 13:23:30;;;;;;;6.75;4.25;;;30.60;42.30;;;;;;5034764;28;20022;-80
2023/06/19 13:25:57;;;;;;;6.05;4.15;;;30.70;42.20;;;;;;5033776;28;20021;-80
2023/06/19 13:28:23;;;;;;;5.60;3.80;;;30.70;42.10;;;;;;5035173;28;20029;-80
2023/06/19 13:30:50;;;;;;;5.57;4.00;;;30.80;41.90;;;;;;5035192;28;20092;-80
2023/06/19 13:33:16;;;;;;;3.85;3.55;;;30.80;41.20;;;;;;5034848;28;20018;-80
2023/06/19 13:35:42;;;;;;;4.88;3.95;;;30.90;41.60;;;;;;5034707;28;20120;-80
2023/06/19 13:38:09;;;;;;;6.05;4.22;;;30.90;41.80;;;;;;5034573;28;20033;-80
2023/06/19 13:40:35;;;;;;;5.13;3.67;;;31.00;41.30;;;;;;5034618;28;20025;-80
2023/06/19 13:43:03;;;;;;;5.60;4.25;;;31.00;41.30;;;;;;5034326;28;20072;-80
2023/06/19 13:45:30;;;;;;;4.30;3.90;;;31.10;41.10;;;;;;5034771;28;20404;-80
2023/06/19 13:47:57;;;;;;;5.80;3.90;;;31.10;42.00;;;;;;5034336;28;20032;-80
2023/06/19 13:50:24;;;;;;;5.05;3.60;;;31.10;41.30;;;;;;5034494;28;20041;-80
2023/06/19 13:52:50;;;;;;;5.65;3.55;;;31.10;41.00;;;;;;5034290;28;20017;-79
2023/06/19 13:55:17;;;;;;;4.53;3.97;;;31.10;40.80;;;;;;5034497;28;20021;-78
2023/06/19 13:57:43;;;;;;;4.40;3.85;;;31.10;41.20;;;;;;5034243;28;20033;-79
2023/06/19 14:00:10;;;;;;;4.43;3.90;;;31.10;41.70;;;;;;5034084;28;20025;-79
2023/06/19 14:02:40;;;;;;;4.60;4.13;;;31.10;41.20;;;;;;5033799;28;20052;-79
2023/06/19 14:05:07;;;;;;;5.95;3.97;;;31.20;41.10;;;;;;5034087;28;20025;-79
2023/06/19 14:07:34;;;;;;;4.93;4.30;;;31.20;40.80;;;;;;5032718;28;20117;-79
2023/06/19 14:10:02;;;;;;;4.30;3.72;;;31.20;41.00;;;;;;5033951;28;20038;-79
2023/06/19 14:12:28;;;;;;;5.72;4.20;;;31.20;41.10;;;;;;5034139;28;20021;-79
2023/06/19 14:14:55;;;;;;;5.63;4.00;;;31.30;41.30;;;;;;5033814;28;20068;-79
2023/06/19 14:17:22;;;;;;;5.93;4.20;;;31.30;41.00;;;;;;5033741;28;20021;-80
2023/06/19 14:19:48;;;;;;;4.38;3.70;;;31.30;41.00;;;;;;5034246;28;20045;-80
2023/06/19 14:22:14;;;;;;;6.50;4.20;;;31.30;40.70;;;;;;5034202;28;20021;-79
2023/06/19 14:24:40;;;;;;;6.03;3.92;;;31.20;40.00;;;;;;5033825;28;20021;-78
2023/06/19 14:27:06;;;;;;;5.78;3.78;;;31.20;40.50;;;;;;5034099;28;20045;-79
2023/06/19 14:29:32;;;;;;;5.47;4.30;;;31.20;39.50;;;;;;5034081;28;20034;-79
2023/06/19 14:31:58;;;;;;;4.95;3.67;;;31.20;39.60;;;;;;5033864;28;20026;-80
2023/06/19 14:34:24;;;;;;;4.85;3.97;;;31.20;40.00;;;;;;5033767;28;20053;-79
2023/06/19 14:36:50;;;;;;;4.22;3.83;;;31.20;40.60;;;;;;5033438;28;20421;-77
2023/06/19 14:39:16;;;;;;;4.97;3.92;;;31.30;39.90;;;;;;5033446;28;20480;-77
2023/06/19 14:41:43;;;;;;;4.30;3.88;;;31.30;40.20;;;;;;5033658;28;20035;-79
2023/06/19 14:44:09;;;;;;;6.28;4.45;;;31.30;39.40;;;;;;5033315;28;20033;-79
2023/06/19 14:46:38;;;;;;;4.63;3.95;;;31.20;39.20;;;;;;5033692;28;20388;-81
2023/06/19 14:49:10;;;;;;;;;;;31.20;39.20;;;;;;5033946;28;20030;-79
2023/06/19 14:51:36;;;;;;;4.47;4.07;;;31.30;38.90;;;;;;5033218;28;19909;-79
2023/06/19 14:54:02;;;;;;;4.93;3.65;;;31.10;53.40;;;;;;5033584;28;20024;-77
2023/06/19 14:56:28;;;;;;;5.18;3.38;;;31.20;39.40;;;;;;5031863;28;20484;-79
2023/06/19 14:58:55;;;;;;;6.80;4.38;;;31.30;39.40;;;;;;5015843;28;20025;-78
2023/06/19 15:01:21;;;;;;;5.82;3.60;;;31.60;53.80;;;;;;5015632;28;20079;-80
2023/06/19 15:03:47;;;;;;;4.82;4.03;;;31.30;39.10;;;;;;5015434;28;20053;-77
2023/06/19 15:06:13;;;;;;;4.78;3.75;;;31.30;39.30;;;;;;5015145;28;20034;-77
2023/06/19 15:08:39;;;;;;;6.95;3.97;;;31.30;39.20;;;;;;5015487;28;20025;-78
2023/06/19 15:11:05;;;;;;;6.78;3.50;;;31.30;38.60;;;;;;5015546;28;20029;-78
2023/06/19 15:13:32;;;;;;;5.60;3.53;;;31.30;38.60;;;;;;5015167;28;20045;-78
2023/06/19 15:15:58;;;;;;;4.43;3.75;;;31.30;38.40;;;;;;5015540;28;20025;-73
2023/06/19 15:18:25;;;;;;;4.90;3.58;;;31.30;38.20;;;;;;5015108;28;20105;-77
2023/06/19 15:20:51;;;;;;;3.80;3.50;;;31.20;38.40;;;;;;5015170;28;20487;-76
2023/06/19 15:23:18;;;;;;;5.20;3.92;;;31.30;38.20;;;;;;5014959;28;20640;-76
2023/06/19 15:25:44;;;;;;;5.57;4.00;;;;;;;;;;5015202;28;20037;-77
2023/06/19 15:28:10;;;;;;;3.90;3.50;;;31.30;37.80;;;;;;5032862;28;20570;-77
2023/06/19 15:30:36;;;;;;;3.63;3.33;;;31.20;38.60;;;;;;5015463;28;20041;-77
2023/06/19 15:33:03;;;;;;;7.65;3.85;;;;;;;;;;5015142;28;20479;-76
2023/06/19 15:35:29;;;;;;;4.00;3.50;;;31.30;38.20;;;;;;5015499;28;20026;-75
2023/06/19 15:37:58;;;;;;;5.75;3.60;;;31.30;38.60;;;;;;5015403;28;20029;-78
2023/06/19 15:40:27;;;;;;;6.22;3.55;;;31.20;37.90;;;;;;5015836;28;20033;-79
2023/06/19 15:42:53;;;;;;;6.90;3.83;;;31.20;38.20;;;;;;5015448;28;20100;-77
2023/06/19 15:45:20;;;;;;;5.63;3.38;;;31.10;37.80;;;;;;5015149;28;20052;-78
2023/06/19 15:47:46;;;;;;;4.13;3.63;;;31.20;37.30;;;;;;4998993;28;20022;-78
2023/06/19 15:50:12;;;;;;;4.25;3.40;;;31.10;37.50;;;;;;4998291;28;20128;-79
2023/06/19 15:52:37;;;;;;;5.05;3.63;;;31.10;37.70;;;;;;4998251;28;20033;-76
2023/06/19 15:55:04;;;;;;;4.18;3.38;;;31.00;38.00;;;;;;5014630;28;20033;-76
2023/06/19 15:57:31;;;;;;;3.88;3.47;;;31.00;38.10;;;;;;5014870;28;20388;-77
2023/06/19 15:59:57;;;;;;;4.75;3.58;;;31.00;38.20;;;;;;5015092;28;20033;-77
2023/06/19 16:02:23;;;;;;;7.22;3.80;;;31.00;38.40;;;;;;5014264;28;20059;-76
2023/06/19 16:04:50;;;;;;;4.38;3.63;;;31.00;38.80;;;;;;5014631;28;20516;-76
2023/06/19 16:07:16;;;;;;;4.32;3.38;;;31.00;38.80;;;;;;5014782;28;20026;-76
2023/06/19 16:09:42;;;;;;;5.13;3.53;;;31.00;38.60;;;;;;5032229;28;20040;-76
2023/06/19 16:12:09;;;;;;;5.45;3.75;;;30.90;38.70;;;;;;5032278;28;20021;-76
2023/06/19 16:14:35;;;;;;;4.93;3.20;;;30.90;39.00;;;;;;5032174;28;20049;-77
2023/06/19 16:17:02;;;;;;;4.10;3.20;;;30.90;39.20;;;;;;5032038;28;20071;-75
2023/06/19 16:19:28;;;;;;;5.68;4.00;;;30.90;39.00;;;;;;5032064;28;20357;-77
2023/06/19 16:21:54;;;;;;;4.10;3.70;;;30.90;38.90;;;;;;5031894;28;20022;-77
2023/06/19 16:24:20;;;;;;;3.70;3.40;;;30.90;39.20;;;;;;5032034;28;20032;-77
2023/06/19 16:26:46;;;;;;;4.00;3.60;;;30.90;39.20;;;;;;5031817;28;20030;-77
2023/06/19 16:29:13;;;;;;;4.18;3.78;;;30.90;39.10;;;;;;5031780;28;20057;-77
2023/06/19 16:31:40;;;;;;;3.78;3.42;;;30.80;39.10;;;;;;5031469;28;20021;-77
2023/06/19 16:34:06;;;;;;;4.07;3.67;;;31.00;53.60;;;;;;5032156;28;20388;-75
2023/06/19 16:36:32;;;;;;;3.90;3.53;;;30.80;39.20;;;;;;5032176;28;20029;-79
2023/06/19 16:38:59;;;;;;;4.72;3.75;;;30.70;39.00;;;;;;5032062;28;20025;-80
2023/06/19 16:41:26;;;;;;;5.50;3.88;;;30.70;39.10;;;;;;5031560;28;20022;-78
2023/06/19 16:43:52;;;;;;;4.20;3.50;;;30.60;38.90;;;;;;5031750;28;20025;-80
2023/06/19 16:46:18;;;;;;;3.85;3.38;;;30.60;39.20;;;;;;5031669;28;20101;-79
2023/06/19 16:48:45;;;;;;;4.65;3.80;;;31.10;40.30;;;;;;5030326;28;20476;-77
2023/06/19 16:51:11;;;;;;;5.10;3.72;;;30.50;39.40;;;;;;5031943;28;20028;-76